createdAt,value
2022-11-22T00:01:41.138Z,-2.50
2022-11-22T00:04:10.182Z,-2.50
2022-11-22T00:06:40.290Z,-2.50
2022-11-22T00:09:09.041Z,-2.40
2022-11-22T00:11:37.787Z,-2.40
2022-11-22T00:14:06.587Z,-2.40
2022-11-22T00:16:35.297Z,-2.40
2022-11-22T00:19:04.021Z,-2.40
2022-11-22T00:21:32.762Z,-2.40
2022-11-22T00:24:02.921Z,-2.40
2022-11-22T00:26:31.564Z,-2.40
2022-11-22T00:29:00.225Z,-2.40
2022-11-22T00:31:28.946Z,-2.40
2022-11-22T00:33:57.785Z,-2.40
2022-11-22T00:36:26.845Z,-2.40
2022-11-22T00:38:55.608Z,-2.40
2022-11-22T00:41:25.652Z,-2.40
2022-11-22T00:43:54.361Z,-2.40
2022-11-22T00:46:22.992Z,-2.30
2022-11-22T00:48:52.498Z,-2.30
2022-11-22T00:51:21.337Z,-2.30
2022-11-22T00:53:49.985Z,-2.40
2022-11-22T00:56:18.740Z,-2.30
2022-11-22T00:58:48.987Z,-2.20
2022-11-22T01:01:17.824Z,-2.10
2022-11-22T01:03:46.490Z,-2.10
2022-11-22T01:06:15.256Z,-2.00
2022-11-22T01:08:44.078Z,-2.00
2022-11-22T01:11:13.278Z,-2.00
2022-11-22T01:13:42.038Z,-1.90
2022-11-22T01:16:13.786Z,-1.90
2022-11-22T01:18:42.741Z,-1.90
2022-11-22T01:21:11.491Z,-1.90
2022-11-22T01:23:40.684Z,-1.90
2022-11-22T01:26:10.211Z,-1.90
2022-11-22T01:28:39.166Z,-1.90
2022-11-22T01:31:07.856Z,-1.90
2022-11-22T01:33:38.047Z,-1.90
2022-11-22T01:36:07.114Z,-1.80
2022-11-22T01:38:35.735Z,-1.90
2022-11-22T01:41:04.327Z,-1.90
2022-11-22T01:43:32.991Z,-1.90
2022-11-22T01:46:03.713Z,-1.90
2022-11-22T01:48:44.585Z,-1.90
2022-11-22T01:51:19.344Z,-1.90
2022-11-22T01:53:48.972Z,-1.90
2022-11-22T01:56:21.030Z,-1.80
2022-11-22T01:58:55.248Z,-1.80
2022-11-22T02:01:24.154Z,-1.90
2022-11-22T02:03:56.345Z,-1.80
2022-11-22T02:06:27.036Z,-1.80
2022-11-22T02:09:02.058Z,-1.80
2022-11-22T02:11:34.134Z,-1.80
2022-11-22T02:14:04.853Z,-1.80
2022-11-22T02:16:35.810Z,-1.80
2022-11-22T02:19:06.941Z,-1.80
2022-11-22T02:21:35.668Z,-1.80
2022-11-22T02:24:12.010Z,-1.70
2022-11-22T02:26:42.513Z,-1.70
2022-11-22T02:29:11.320Z,-1.80
2022-11-22T02:31:43.602Z,-1.70
2022-11-22T02:34:12.669Z,-1.70
2022-11-22T02:36:44.630Z,-1.70
2022-11-22T02:39:15.915Z,-1.70
2022-11-22T02:41:47.091Z,-1.70
2022-11-22T02:44:16.177Z,-1.80
2022-11-22T02:46:49.592Z,-1.80
2022-11-22T02:49:20.045Z,-1.70
2022-11-22T02:51:49.209Z,-1.70
2022-11-22T02:54:17.885Z,-1.70
2022-11-22T02:56:48.207Z,-1.70
2022-11-22T02:59:16.955Z,-1.70
2022-11-22T03:01:48.036Z,-1.80
2022-11-22T03:04:25.196Z,-1.80
2022-11-22T03:06:55.985Z,-1.80
2022-11-22T03:09:25.267Z,-1.80
2022-11-22T03:11:56.025Z,-1.80
2022-11-22T03:14:24.970Z,-1.80
2022-11-22T03:16:53.929Z,-1.80
2022-11-22T03:19:22.707Z,-1.70
2022-11-22T03:21:52.381Z,-1.70
2022-11-22T03:24:21.308Z,-1.70
2022-11-22T03:26:50.903Z,-1.70
2022-11-22T03:29:21.016Z,-1.70
2022-11-22T03:31:49.687Z,-1.70
2022-11-22T03:34:18.389Z,-1.70
2022-11-22T03:36:47.064Z,-1.60
2022-11-22T03:39:15.786Z,-1.60
2022-11-22T03:41:45.831Z,-1.60
2022-11-22T03:44:14.506Z,-1.60
2022-11-22T03:46:44.610Z,-1.60
2022-11-22T03:49:13.378Z,-1.60
2022-11-22T03:51:42.059Z,-1.50
2022-11-22T03:54:10.756Z,-1.50
2022-11-22T03:56:39.415Z,-1.50
2022-11-22T03:59:08.003Z,-1.50
2022-11-22T04:01:36.729Z,-1.50
2022-11-22T04:04:07.090Z,-1.50
2022-11-22T04:06:35.803Z,-1.50
2022-11-22T04:09:04.648Z,-1.50
2022-11-22T04:11:33.273Z,-1.50
2022-11-22T04:14:19.088Z,-1.50
2022-11-22T04:16:47.886Z,-1.50
2022-11-22T04:19:17.919Z,-1.50
2022-11-22T04:21:45.563Z,-1.50
2022-11-22T04:24:31.419Z,-1.50
2022-11-22T04:27:00.096Z,-1.50
2022-11-22T04:29:29.206Z,-1.50
2022-11-22T04:32:24.133Z,-1.50
2022-11-22T04:34:54.150Z,-1.50
2022-11-22T04:37:22.910Z,-1.50
2022-11-22T04:39:51.535Z,-1.50
2022-11-22T04:42:37.668Z,-1.50
2022-11-22T04:45:07.481Z,-1.50
2022-11-22T04:47:53.330Z,-1.50
2022-11-22T04:50:40.697Z,-1.50
2022-11-22T04:53:09.499Z,-1.50
2022-11-22T04:55:38.111Z,-1.40
2022-11-22T04:58:06.739Z,-1.50
2022-11-22T05:00:35.720Z,-1.40
2022-11-22T05:03:05.425Z,-1.40
2022-11-22T05:05:38.847Z,-1.40
2022-11-22T05:08:08.533Z,-1.40
2022-11-22T05:10:51.117Z,-1.40
2022-11-22T05:13:20.335Z,-1.40
2022-11-22T05:15:49.402Z,-1.40
2022-11-22T05:18:18.302Z,-1.40
2022-11-22T05:20:48.707Z,-1.40
2022-11-22T05:23:35.166Z,-1.50
2022-11-22T05:26:04.192Z,-1.50
2022-11-22T05:28:33.990Z,-1.50
2022-11-22T05:31:06.973Z,-1.50
2022-11-22T05:33:37.637Z,-1.50
2022-11-22T05:36:09.276Z,-1.60
2022-11-22T05:38:38.977Z,-1.60
2022-11-22T05:41:08.978Z,-1.70
2022-11-22T05:43:37.860Z,-1.70
2022-11-22T05:46:08.604Z,-1.70
2022-11-22T05:48:38.419Z,-1.80
2022-11-22T05:51:09.731Z,-1.80
2022-11-22T05:53:39.327Z,-1.80
2022-11-22T05:56:08.616Z,-1.80
2022-11-22T05:58:37.782Z,-1.80
2022-11-22T06:01:07.858Z,-1.90
2022-11-22T06:03:37.283Z,-1.90
2022-11-22T06:06:07.241Z,-1.90
2022-11-22T06:08:38.691Z,-1.90
2022-11-22T06:11:08.139Z,-1.80
2022-11-22T06:13:37.693Z,-1.80
2022-11-22T06:16:08.065Z,-1.70
2022-11-22T06:18:36.947Z,-1.60
2022-11-22T06:21:07.367Z,-1.60
2022-11-22T06:23:37.563Z,-1.60
2022-11-22T06:26:08.434Z,-1.60
2022-11-22T06:28:38.739Z,-1.60
2022-11-22T06:31:09.543Z,-1.50
2022-11-22T06:33:38.516Z,-1.50
2022-11-22T06:36:08.972Z,-1.50
2022-11-22T06:38:39.876Z,-1.40
2022-11-22T06:41:10.566Z,-1.50
2022-11-22T06:43:46.718Z,-1.50
2022-11-22T06:46:17.843Z,-1.50
2022-11-22T06:48:46.610Z,-1.50
2022-11-22T06:51:17.192Z,-1.50
2022-11-22T06:53:48.978Z,-1.50
2022-11-22T06:56:20.188Z,-1.50
2022-11-22T06:58:50.253Z,-1.40
2022-11-22T07:01:20.397Z,-1.40
2022-11-22T07:03:49.805Z,-1.30
2022-11-22T07:06:19.682Z,-1.30
2022-11-22T07:08:49.883Z,-1.40
2022-11-22T07:11:20.239Z,-1.40
2022-11-22T07:13:49.665Z,-1.40
2022-11-22T07:16:19.670Z,-1.40
2022-11-22T07:18:48.869Z,-1.40
2022-11-22T07:21:19.153Z,-1.30
2022-11-22T07:23:51.030Z,-1.30
2022-11-22T07:26:21.207Z,-1.30
2022-11-22T07:28:50.539Z,-1.40
2022-11-22T07:31:19.489Z,-1.40
2022-11-22T07:33:48.697Z,-1.40
2022-11-22T07:36:19.236Z,-1.40
2022-11-22T07:38:49.624Z,-1.30
2022-11-22T07:41:19.190Z,-1.30
2022-11-22T07:43:48.140Z,-1.30
2022-11-22T07:46:22.977Z,-1.30
2022-11-22T07:48:51.688Z,-1.30
2022-11-22T07:51:21.626Z,-1.30
2022-11-22T07:53:51.961Z,-1.40
2022-11-22T07:56:20.785Z,-1.40
2022-11-22T07:58:49.439Z,-1.40
2022-11-22T08:01:19.697Z,-1.30
2022-11-22T08:03:48.682Z,-1.20
2022-11-22T08:06:17.760Z,-1.10
2022-11-22T08:08:46.507Z,-1.10
2022-11-22T08:11:16.472Z,-1.10
2022-11-22T08:13:45.254Z,-1.00
2022-11-22T08:18:48.247Z,-0.80
2022-11-22T08:21:18.015Z,-0.80
2022-11-22T08:23:47.011Z,-0.80
2022-11-22T08:26:19.073Z,-0.70
2022-11-22T08:28:47.842Z,-0.80
2022-11-22T08:31:19.176Z,-0.80
2022-11-22T08:33:48.288Z,-0.80
2022-11-22T08:36:17.156Z,-0.80
2022-11-22T08:38:45.882Z,-0.80
2022-11-22T08:41:14.791Z,-0.80
2022-11-22T08:43:44.858Z,-0.80
2022-11-22T08:46:13.470Z,-0.80
2022-11-22T08:48:42.391Z,-0.80
2022-11-22T08:51:12.813Z,-0.70
2022-11-22T08:53:43.781Z,-0.70
2022-11-22T08:56:14.966Z,-0.70
2022-11-22T08:58:45.122Z,-0.80
2022-11-22T09:01:16.862Z,-0.80
2022-11-22T09:03:46.366Z,-0.90
2022-11-22T09:09:43.168Z,-0.90
2022-11-22T09:11:55.051Z,-1.00
2022-11-22T09:14:25.075Z,-1.00
2022-11-22T09:16:53.730Z,-1.00
2022-11-22T09:19:22.424Z,-1.00
2022-11-22T09:21:51.335Z,-1.00
2022-11-22T09:24:20.659Z,-1.00
2022-11-22T09:26:49.317Z,-1.10
2022-11-22T09:29:18.003Z,-1.10
2022-11-22T09:31:48.050Z,-1.10
2022-11-22T09:34:16.755Z,-1.10
2022-11-22T09:36:45.460Z,-1.10
2022-11-22T09:39:14.254Z,-1.10
2022-11-22T09:42:15.198Z,-1.10
2022-11-22T09:45:03.870Z,-1.20
2022-11-22T09:47:40.200Z,-1.30
2022-11-22T09:50:20.073Z,-1.50
2022-11-22T09:52:55.097Z,-1.70
2022-11-22T09:55:28.358Z,-1.40
2022-11-22T09:58:05.797Z,-1.40
2022-11-22T10:00:36.145Z,-1.30
2022-11-22T10:03:12.509Z,-1.30
2022-11-22T10:05:52.170Z,-1.30
2022-11-22T10:08:40.180Z,-1.30
2022-11-22T10:11:15.601Z,-1.20
2022-11-22T10:13:51.160Z,-1.20
2022-11-22T10:16:24.779Z,-1.20
2022-11-22T10:18:59.044Z,-1.10
2022-11-22T10:21:28.012Z,-1.00
2022-11-22T10:23:56.645Z,-0.90
2022-11-22T10:26:28.466Z,-0.80
2022-11-22T10:29:17.271Z,-0.80
2022-11-22T10:31:54.646Z,-0.80
2022-11-22T10:37:06.641Z,-0.40
2022-11-22T10:40:01.155Z,-0.60
2022-11-22T10:43:02.843Z,-0.70
2022-11-22T10:45:35.473Z,-0.60
2022-11-22T10:48:18.217Z,-0.70
2022-11-22T10:50:58.490Z,-0.80
2022-11-22T10:53:44.547Z,-0.80
2022-11-22T10:56:20.817Z,-1.00
2022-11-22T10:59:02.406Z,-1.00
2022-11-22T11:01:40.473Z,-1.00
2022-11-22T11:04:12.278Z,-1.00
2022-11-22T11:12:46.482Z,-1.20
2022-11-22T11:15:20.737Z,-1.20
2022-11-22T11:17:54.900Z,-1.20
2022-11-22T11:20:27.469Z,-1.10
2022-11-22T11:23:15.223Z,-1.00
2022-11-22T11:25:46.593Z,-1.00
2022-11-22T11:28:20.390Z,-1.00
2022-11-22T11:30:52.209Z,-1.10
2022-11-22T11:33:26.719Z,-1.10
2022-11-22T11:35:58.470Z,-1.10
2022-11-22T11:38:37.428Z,-1.10
2022-11-22T11:41:24.155Z,-1.10
2022-11-22T11:43:54.459Z,-1.00
2022-11-22T11:46:24.621Z,-1.00
2022-11-22T11:48:55.157Z,-1.00
2022-11-22T11:51:36.899Z,-1.00
2022-11-22T11:54:11.261Z,-0.90
2022-11-22T11:56:49.185Z,-0.90
2022-11-22T11:59:20.228Z,-1.00
2022-11-22T12:01:55.699Z,-1.00
2022-11-22T12:04:28.650Z,-1.00
2022-11-22T12:07:03.486Z,-1.00
2022-11-22T12:09:38.676Z,-0.90
2022-11-22T12:12:16.495Z,-0.90
2022-11-22T12:15:10.346Z,-0.90
2022-11-22T12:17:45.384Z,-0.90
2022-11-22T12:20:19.586Z,-1.00
2022-11-22T12:22:55.352Z,-1.00
2022-11-22T12:25:33.213Z,-0.90
2022-11-22T12:28:19.375Z,-0.90
2022-11-22T12:30:52.933Z,-0.90
2022-11-22T12:33:26.209Z,-1.00
2022-11-22T12:35:56.791Z,-1.10
2022-11-22T12:38:29.279Z,-1.10
2022-11-22T12:41:03.572Z,-1.20
2022-11-22T12:43:38.085Z,-1.20
2022-11-22T12:46:12.165Z,-1.30
2022-11-22T12:48:48.874Z,-1.30
2022-11-22T12:51:24.792Z,-1.40
2022-11-22T12:53:57.027Z,-1.30
2022-11-22T12:56:33.594Z,-1.40
2022-11-22T12:59:07.942Z,-1.30
2022-11-22T13:01:45.390Z,-1.30
2022-11-22T13:04:21.207Z,-1.30
2022-11-22T13:06:57.996Z,-1.30
2022-11-22T13:09:33.556Z,-1.30
2022-11-22T13:12:07.383Z,-1.30
2022-11-22T13:14:40.055Z,-1.30
2022-11-22T13:17:09.918Z,-1.30
2022-11-22T13:19:41.719Z,-1.30
2022-11-22T13:22:17.715Z,-1.20
2022-11-22T13:25:02.843Z,-1.20
2022-11-22T13:27:36.116Z,-1.20
2022-11-22T13:30:05.996Z,-1.20
2022-11-22T13:32:35.267Z,-1.20
2022-11-22T13:35:20.272Z,-1.20
2022-11-22T13:37:51.522Z,-1.20
2022-11-22T13:40:27.412Z,-1.20
2022-11-22T13:43:50.169Z,-1.20
2022-11-22T13:46:53.412Z,-1.20
2022-11-22T13:49:38.332Z,-1.30
2022-11-22T13:52:30.372Z,-1.20
2022-11-22T13:55:19.412Z,-1.30
2022-11-22T13:57:48.115Z,-1.40
2022-11-22T14:00:51.196Z,-1.40
2022-11-22T14:03:36.376Z,-1.40
2022-11-22T14:06:24.941Z,-1.60
2022-11-22T14:09:18.800Z,-1.70
2022-11-22T14:12:01.252Z,-1.70
2022-11-22T14:14:38.157Z,-1.70
2022-11-22T14:17:19.369Z,-1.70
2022-11-22T14:20:01.434Z,-1.60
2022-11-22T14:22:46.587Z,-1.60
2022-11-22T14:25:35.175Z,-1.70
2022-11-22T14:28:13.217Z,-1.70
2022-11-22T14:30:47.569Z,-1.70
2022-11-22T14:33:20.185Z,-1.70
2022-11-22T14:36:17.682Z,-1.70
2022-11-22T14:38:46.737Z,-1.80
2022-11-22T14:41:43.888Z,-1.80
2022-11-22T14:44:17.241Z,-1.80
2022-11-22T14:46:53.813Z,-1.80
2022-11-22T14:52:00.920Z,-1.90
2022-11-22T14:54:31.239Z,-2.00
2022-11-22T14:57:04.435Z,-1.90
2022-11-22T14:59:59.447Z,-1.90
2022-11-22T15:02:58.520Z,-1.90
2022-11-22T15:09:14.766Z,-2.00
2022-11-22T15:09:23.402Z,-1.90
2022-11-22T15:12:18.669Z,-2.00
2022-11-22T15:59:11.916Z,-2.00
2022-11-22T16:01:44.029Z,-2.20
2022-11-22T16:04:22.931Z,-2.20
2022-11-22T16:06:53.651Z,-2.20
2022-11-22T16:09:29.383Z,-2.40
2022-11-22T16:12:02.842Z,-2.40
2022-11-22T16:14:49.929Z,-2.40
2022-11-22T16:17:27.600Z,-2.30
2022-11-22T16:20:29.703Z,-2.30
2022-11-22T16:23:20.052Z,-2.20
2022-11-22T16:25:51.073Z,-2.30
2022-11-22T16:28:32.846Z,-2.40
2022-11-22T16:31:04.640Z,-2.60
2022-11-22T16:33:33.554Z,-2.60
2022-11-22T16:36:03.433Z,-2.70
2022-11-22T16:38:32.083Z,-2.70
2022-11-22T16:41:00.846Z,-2.70
2022-11-22T16:43:36.182Z,-2.70
2022-11-22T16:46:05.201Z,-2.60
2022-11-22T16:48:34.041Z,-2.50
2022-11-22T16:51:06.287Z,-2.40
2022-11-22T16:53:44.534Z,-2.40
2022-11-22T16:56:21.009Z,-2.40
2022-11-22T16:58:52.284Z,-2.40
2022-11-22T17:01:24.158Z,-2.30
2022-11-22T17:03:54.823Z,-2.30
2022-11-22T17:06:25.048Z,-2.30
2022-11-22T17:08:55.773Z,-2.20
2022-11-22T17:11:26.186Z,-2.20
2022-11-22T17:13:56.645Z,-2.20
2022-11-22T17:16:25.311Z,-2.20
2022-11-22T17:18:56.018Z,-2.20
2022-11-22T17:21:30.348Z,-2.30
2022-11-22T17:24:04.774Z,-2.40
2022-11-22T17:26:34.867Z,-2.50
2022-11-22T17:29:06.636Z,-2.60
2022-11-22T17:31:37.897Z,-2.60
2022-11-22T17:34:06.526Z,-2.60
2022-11-22T17:36:36.781Z,-2.40
2022-11-22T17:39:07.164Z,-2.40
2022-11-22T17:41:36.150Z,-2.50
2022-11-22T17:44:07.260Z,-2.40
2022-11-22T17:46:38.469Z,-2.40
2022-11-22T17:49:11.218Z,-2.40
2022-11-22T17:51:42.831Z,-2.40
2022-11-22T17:54:11.555Z,-2.40
2022-11-22T17:56:40.490Z,-2.40
2022-11-22T17:59:10.563Z,-2.40
2022-11-22T18:01:39.302Z,-2.40
2022-11-22T18:04:07.919Z,-2.40
2022-11-22T18:06:36.572Z,-2.30
2022-11-22T18:09:05.608Z,-2.30
2022-11-22T18:11:34.345Z,-2.30
2022-11-22T18:14:03.015Z,-2.20
2022-11-22T18:16:33.080Z,-2.30
2022-11-22T18:19:01.990Z,-2.20
2022-11-22T18:21:33.499Z,-2.30
2022-11-22T18:24:02.862Z,-2.30
2022-11-22T18:26:39.774Z,-2.40
2022-11-22T18:29:41.297Z,-2.50
2022-11-22T18:32:00.846Z,-2.50
2022-11-22T18:34:30.480Z,-2.60
2022-11-22T18:37:02.449Z,-2.70
2022-11-22T18:39:32.804Z,-2.60
2022-11-22T18:42:01.851Z,-2.60
2022-11-22T18:44:30.446Z,-2.60
2022-11-22T18:47:00.529Z,-2.60
2022-11-22T18:49:29.809Z,-2.50
2022-11-22T18:51:58.657Z,-2.50
2022-11-22T18:54:27.495Z,-2.60
2022-11-22T18:56:56.210Z,-2.60
2022-11-22T18:59:25.021Z,-2.60
2022-11-22T19:01:53.817Z,-2.50
2022-11-22T19:04:23.788Z,-2.50
2022-11-22T19:06:52.645Z,-2.40
2022-11-22T19:09:22.307Z,-2.40
2022-11-22T19:11:55.554Z,-2.40
2022-11-22T19:14:29.209Z,-2.30
2022-11-22T19:16:58.198Z,-2.30
2022-11-22T19:19:32.236Z,-2.30
2022-11-22T19:22:01.404Z,-2.30
2022-11-22T19:24:30.605Z,-2.30
2022-11-22T19:26:59.404Z,-2.40
2022-11-22T19:29:28.143Z,-2.40
2022-11-22T19:31:57.045Z,-2.60
2022-11-22T19:34:25.798Z,-2.70
2022-11-22T19:36:55.993Z,-2.70
2022-11-22T19:39:25.833Z,-2.80
2022-11-22T19:41:54.373Z,-2.90
2022-11-22T19:44:23.017Z,-3.00
2022-11-22T19:46:51.632Z,-3.00
2022-11-22T19:49:20.247Z,-3.00
2022-11-22T19:51:49.250Z,-3.10
2022-11-22T19:54:19.164Z,-3.10
2022-11-22T19:56:48.039Z,-3.10
2022-11-22T19:59:17.564Z,-3.00
2022-11-22T20:01:46.232Z,-3.00
2022-11-22T20:04:15.471Z,-3.00
2022-11-22T20:06:49.717Z,-3.00
2022-11-22T20:09:20.403Z,-3.10
2022-11-22T20:11:49.192Z,-3.00
2022-11-22T20:14:17.733Z,-3.10
2022-11-22T20:16:46.422Z,-3.00
2022-11-22T20:19:15.795Z,-2.90
2022-11-22T20:21:44.981Z,-2.90
2022-11-22T20:24:14.499Z,-2.80
2022-11-22T20:26:44.705Z,-2.80
2022-11-22T20:29:15.371Z,-2.80
2022-11-22T20:31:44.194Z,-2.80
2022-11-22T20:34:14.003Z,-2.80
2022-11-22T20:36:42.781Z,-2.80
2022-11-22T20:39:11.735Z,-2.70
2022-11-22T20:41:41.120Z,-2.70
2022-11-22T20:44:14.379Z,-2.80
2022-11-22T20:46:43.603Z,-2.80
2022-11-22T20:49:13.724Z,-2.70
2022-11-22T20:51:44.797Z,-2.80
2022-11-22T20:54:14.419Z,-2.70
2022-11-22T20:56:43.106Z,-2.70
2022-11-22T20:59:13.489Z,-2.70
2022-11-22T21:01:43.812Z,-2.70
2022-11-22T21:04:12.415Z,-2.60
2022-11-22T21:06:41.178Z,-2.60
2022-11-22T21:09:11.717Z,-2.60
2022-11-22T21:11:41.395Z,-2.50
2022-11-22T21:14:10.608Z,-2.40
2022-11-22T21:16:42.011Z,-2.40
2022-11-22T21:19:11.072Z,-2.40
2022-11-22T21:21:39.962Z,-2.40
2022-11-22T21:24:12.199Z,-2.40
2022-11-22T21:26:40.937Z,-2.30
2022-11-22T21:29:16.462Z,-2.40
2022-11-22T21:31:47.079Z,-2.40
2022-11-22T21:34:16.520Z,-2.50
2022-11-22T21:36:45.436Z,-2.50
2022-11-22T21:39:15.135Z,-2.50
2022-11-22T21:41:43.847Z,-2.50
2022-11-22T21:44:12.678Z,-2.60
2022-11-22T21:46:41.501Z,-2.60
2022-11-22T21:49:12.585Z,-2.70
2022-11-22T21:51:41.322Z,-2.90
2022-11-22T21:54:10.206Z,-3.00
2022-11-22T21:56:38.865Z,-3.00
2022-11-22T21:59:07.806Z,-3.00
2022-11-22T22:01:36.613Z,-2.80
2022-11-22T22:04:05.666Z,-2.80
2022-11-22T22:06:35.834Z,-2.80
2022-11-22T22:09:04.918Z,-2.80
2022-11-22T22:11:33.723Z,-2.80
2022-11-22T22:14:02.437Z,-2.80
2022-11-22T22:16:31.065Z,-2.80
2022-11-22T22:19:01.876Z,-2.70
2022-11-22T22:21:32.218Z,-2.70
2022-11-22T22:24:03.851Z,-2.70
2022-11-22T22:26:33.063Z,-2.80
2022-11-22T22:29:02.055Z,-2.90
2022-11-22T22:31:30.896Z,-2.90
2022-11-22T22:33:59.809Z,-2.90
2022-11-22T22:36:29.044Z,-2.80
2022-11-22T22:38:57.921Z,-2.90
2022-11-22T22:41:28.255Z,-2.80
2022-11-22T22:43:56.943Z,-2.90
2022-11-22T22:46:26.092Z,-2.80
2022-11-22T22:48:56.329Z,-2.80
2022-11-22T22:51:32.343Z,-2.70
2022-11-22T22:54:02.405Z,-2.80
2022-11-22T22:56:33.183Z,-2.80
2022-11-22T22:59:02.290Z,-2.80
2022-11-22T23:01:32.579Z,-2.80
2022-11-22T23:04:02.885Z,-2.80
2022-11-22T23:06:34.043Z,-2.70
2022-11-22T23:09:04.373Z,-2.60
2022-11-22T23:11:54.048Z,-2.60
2022-11-22T23:14:25.428Z,-2.60
2022-11-22T23:16:57.585Z,-2.50
2022-11-22T23:19:27.958Z,-2.50
2022-11-22T23:21:56.707Z,-2.50
2022-11-22T23:24:25.318Z,-2.60
2022-11-22T23:26:55.479Z,-2.60
2022-11-22T23:29:24.154Z,-2.60
2022-11-22T23:31:55.073Z,-2.60
2022-11-22T23:34:24.012Z,-2.70
2022-11-22T23:36:52.936Z,-2.70
2022-11-22T23:39:21.616Z,-2.70
2022-11-22T23:41:50.274Z,-2.70
2022-11-22T23:44:20.432Z,-2.60
2022-11-22T23:46:51.221Z,-2.60
2022-11-22T23:49:19.834Z,-2.50
2022-11-22T23:51:50.456Z,-2.40
2022-11-22T23:54:19.303Z,-2.50
2022-11-22T23:56:48.092Z,-2.50
2022-11-22T23:59:17.855Z,-2.40
